createdAt,value
2022-11-07T00:02:37.712Z,2.15
2022-11-07T00:07:39.444Z,2.03
2022-11-07T00:12:41.124Z,4.45
2022-11-07T00:17:42.821Z,4.30
2022-11-07T00:22:44.500Z,4.07
2022-11-07T00:27:46.739Z,4.28
2022-11-07T00:32:48.455Z,3.25
2022-11-07T00:37:50.080Z,2.22
2022-11-07T00:42:51.759Z,2.15
2022-11-07T00:47:54.587Z,1.92
2022-11-07T00:52:57.398Z,1.98
2022-11-07T00:57:59.569Z,1.70
2022-11-07T01:03:19.950Z,2.65
2022-11-07T01:08:21.609Z,3.08
2022-11-07T01:13:23.698Z,2.70
2022-11-07T01:18:25.716Z,2.35
2022-11-07T01:23:27.813Z,3.38
2022-11-07T01:28:29.543Z,2.40
2022-11-07T01:33:31.691Z,2.67
2022-11-07T01:38:33.369Z,1.50
2022-11-07T01:43:41.833Z,2.30
2022-11-07T01:48:50.511Z,3.10
2022-11-07T01:53:54.590Z,2.42
2022-11-07T01:58:57.479Z,3.58
2022-11-07T02:04:00.174Z,3.00
2022-11-07T02:09:01.914Z,2.03
2022-11-07T02:14:04.058Z,0.90
2022-11-07T02:19:21.218Z,3.00
2022-11-07T02:24:25.030Z,1.70
2022-11-07T02:29:27.525Z,1.30
2022-11-07T02:34:29.749Z,1.00
2022-11-07T02:39:31.825Z,1.15
2022-11-07T02:44:34.082Z,0.82
2022-11-07T02:49:35.733Z,1.10
2022-11-07T02:54:37.812Z,1.33
2022-11-07T02:59:39.440Z,1.23
2022-11-07T03:04:45.161Z,0.88
2022-11-07T03:09:49.695Z,1.00
2022-11-07T03:14:51.519Z,1.13
2022-11-07T03:19:53.261Z,1.00
2022-11-07T03:24:54.879Z,3.80
2022-11-07T03:29:56.660Z,10.70
2022-11-07T03:34:58.347Z,10.43
2022-11-07T03:40:00.017Z,9.15
2022-11-07T03:45:01.696Z,6.72
2022-11-07T03:50:04.369Z,4.82
2022-11-07T03:55:06.684Z,4.53
2022-11-07T04:00:09.492Z,3.40
2022-11-07T04:05:12.226Z,2.45
2022-11-07T04:10:13.887Z,1.50
2022-11-07T04:15:34.209Z,0.90
2022-11-07T04:20:35.859Z,0.80
2022-11-07T04:25:56.137Z,1.20
2022-11-07T04:30:58.203Z,1.20
2022-11-07T04:36:00.437Z,8.55
2022-11-07T04:41:02.519Z,2.17
2022-11-07T04:46:04.604Z,7.63
2022-11-07T04:51:06.677Z,4.18
2022-11-07T04:56:08.771Z,3.15
2022-11-07T05:01:10.940Z,2.85
2022-11-07T05:06:14.626Z,2.60
2022-11-07T05:11:16.365Z,1.50
2022-11-07T05:16:18.132Z,3.25
2022-11-07T05:21:20.214Z,2.55
2022-11-07T05:26:21.957Z,1.13
2022-11-07T05:31:23.642Z,0.90
2022-11-07T05:36:25.783Z,0.90
2022-11-07T05:41:27.898Z,1.10
2022-11-07T05:46:30.095Z,1.00
2022-11-07T05:51:32.188Z,1.20
2022-11-07T05:56:34.245Z,0.80
2022-11-07T06:01:36.450Z,1.45
2022-11-07T06:06:38.678Z,1.05
2022-11-07T06:11:40.386Z,0.88
2022-11-07T06:16:42.706Z,0.93
2022-11-07T06:21:45.224Z,1.67
2022-11-07T06:26:46.989Z,0.60
2022-11-07T06:31:48.625Z,1.10
2022-11-07T06:37:02.824Z,1.05
2022-11-07T06:42:05.435Z,1.10
2022-11-07T06:47:07.113Z,2.30
2022-11-07T06:52:09.262Z,1.85
2022-11-07T06:57:11.384Z,3.08
2022-11-07T07:02:26.011Z,3.30
2022-11-07T07:07:35.751Z,1.50
2022-11-07T07:12:37.471Z,1.05
2022-11-07T07:17:39.585Z,2.40
2022-11-07T07:22:41.234Z,1.40
2022-11-07T07:27:42.940Z,1.23
2022-11-07T07:32:44.670Z,2.00
2022-11-07T07:37:50.933Z,2.08
2022-11-07T07:42:52.670Z,1.30
2022-11-07T07:48:00.447Z,1.02
2022-11-07T07:53:07.759Z,1.00
2022-11-07T07:58:11.697Z,1.60
2022-11-07T08:03:13.839Z,2.92
2022-11-07T08:08:15.809Z,7.68
2022-11-07T08:13:18.096Z,4.40
2022-11-07T08:18:21.951Z,16.08
2022-11-07T08:23:24.448Z,15.32
2022-11-07T08:28:28.444Z,7.97
2022-11-07T08:33:30.827Z,1.40
2022-11-07T08:38:34.942Z,3.15
2022-11-07T08:43:36.618Z,2.70
2022-11-07T08:48:39.920Z,1.52
2022-11-07T08:53:41.617Z,0.90
2022-11-07T08:58:43.267Z,1.40
2022-11-07T09:03:50.352Z,0.95
2022-11-07T09:08:56.570Z,0.90
2022-11-07T09:13:58.297Z,1.40
2022-11-07T09:18:59.952Z,1.10
2022-11-07T09:24:01.846Z,1.17
2022-11-07T09:29:04.235Z,0.75
2022-11-07T09:34:07.350Z,1.10
2022-11-07T09:39:09.090Z,0.90
2022-11-07T09:44:40.947Z,1.05
2022-11-07T09:49:55.812Z,0.70
2022-11-07T09:55:24.475Z,1.00
2022-11-07T10:00:29.529Z,1.35
2022-11-07T10:05:35.053Z,1.00
2022-11-07T10:10:55.307Z,1.00
2022-11-07T10:16:18.373Z,0.80
2022-11-07T10:21:37.668Z,1.00
2022-11-07T10:26:44.012Z,0.82
2022-11-07T10:32:20.904Z,1.02
2022-11-07T10:37:22.718Z,1.20
2022-11-07T10:42:29.403Z,0.90
2022-11-07T10:47:31.051Z,1.10
2022-11-07T10:52:33.055Z,0.88
2022-11-07T10:57:35.993Z,1.45
2022-11-07T11:02:48.191Z,1.33
2022-11-07T11:07:50.477Z,0.98
2022-11-07T11:12:52.452Z,0.98
2022-11-07T11:18:06.241Z,0.70
2022-11-07T11:23:19.306Z,1.10
2022-11-07T11:28:27.447Z,0.70
2022-11-07T11:33:39.291Z,0.90
2022-11-07T11:38:42.335Z,0.90
2022-11-07T11:44:12.818Z,0.90
2022-11-07T11:49:23.154Z,1.00
2022-11-07T11:54:25.479Z,1.65
2022-11-07T11:59:48.835Z,1.10
2022-11-07T12:05:17.549Z,0.82
2022-11-07T12:10:39.512Z,1.10
2022-11-07T12:21:09.577Z,0.73
2022-11-07T12:26:21.184Z,1.02
2022-11-07T12:31:33.343Z,1.20
2022-11-07T12:37:13.658Z,1.27
2022-11-07T12:42:28.351Z,0.98
2022-11-07T12:47:41.936Z,1.15
2022-11-07T12:53:07.989Z,1.42
2022-11-07T12:58:24.372Z,1.10
2022-11-07T13:03:35.230Z,0.85
2022-11-07T13:09:07.790Z,1.27
2022-11-07T13:19:32.950Z,1.50
2022-11-07T13:24:49.428Z,1.23
2022-11-07T13:29:51.877Z,1.00
2022-11-07T13:35:00.451Z,0.90
2022-11-07T13:40:07.094Z,1.33
2022-11-07T13:45:38.478Z,0.80
2022-11-07T13:50:43.723Z,0.82
2022-11-07T13:55:52.526Z,0.80
2022-11-07T14:00:54.284Z,1.60
2022-11-07T14:05:57.024Z,1.52
2022-11-07T14:10:59.320Z,1.30
2022-11-07T14:16:19.485Z,1.05
2022-11-07T14:21:27.926Z,0.77
2022-11-07T14:26:32.786Z,0.70
2022-11-07T14:31:37.214Z,1.05
2022-11-07T14:36:48.317Z,1.40
2022-11-07T14:41:51.345Z,0.98
2022-11-07T14:46:54.013Z,0.85
2022-11-07T14:51:56.276Z,1.23
2022-11-07T14:56:58.893Z,0.93
2022-11-07T15:02:06.458Z,0.70
2022-11-07T15:07:24.729Z,1.40
2022-11-07T15:12:29.843Z,2.40
2022-11-07T15:17:33.451Z,2.38
2022-11-07T15:22:39.304Z,2.58
2022-11-07T15:27:41.518Z,2.90
2022-11-07T15:32:43.423Z,1.73
2022-11-07T15:37:56.333Z,1.92
2022-11-07T15:42:58.363Z,1.75
2022-11-07T15:48:00.110Z,1.23
2022-11-07T15:53:01.800Z,2.15
2022-11-07T15:58:03.553Z,3.08
2022-11-07T16:03:05.262Z,1.67
2022-11-07T16:08:09.123Z,1.60
2022-11-07T16:13:10.865Z,1.90
2022-11-07T16:18:16.951Z,1.77
2022-11-07T16:23:19.435Z,2.10
2022-11-07T16:28:25.578Z,2.10
2022-11-07T16:33:28.461Z,6.78
2022-11-07T16:38:35.382Z,7.70
2022-11-07T16:43:38.060Z,3.63
2022-11-07T16:48:40.296Z,18.65
2022-11-07T16:53:43.125Z,14.20
2022-11-07T16:58:44.875Z,16.23
2022-11-07T17:03:46.631Z,5.32
2022-11-07T17:08:49.055Z,3.08
2022-11-07T17:13:50.777Z,1.70
2022-11-07T17:18:53.028Z,11.57
2022-11-07T17:23:56.466Z,9.13
2022-11-07T17:28:59.610Z,4.80
2022-11-07T17:34:01.292Z,2.95
2022-11-07T17:39:08.048Z,1.65
2022-11-07T17:44:10.609Z,12.38
2022-11-07T17:49:14.828Z,3.55
2022-11-07T17:54:16.572Z,8.50
2022-11-07T18:02:35.476Z,2.95
2022-11-07T18:07:40.755Z,2.42
2022-11-07T18:12:43.326Z,2.72
2022-11-07T18:17:45.131Z,1.88
2022-11-07T18:22:46.836Z,2.15
2022-11-07T18:27:48.776Z,5.28
2022-11-07T18:32:51.029Z,12.15
2022-11-07T18:37:52.749Z,14.68
2022-11-07T18:42:54.428Z,8.50
2022-11-07T18:47:56.078Z,10.02
2022-11-07T18:52:57.809Z,7.63
2022-11-07T18:57:59.499Z,4.88
2022-11-07T19:03:01.289Z,11.00
2022-11-07T19:08:03.081Z,8.13
2022-11-07T19:13:08.088Z,4.80
2022-11-07T19:18:10.198Z,14.00
2022-11-07T19:23:12.970Z,15.10
2022-11-07T19:28:15.456Z,12.73
2022-11-07T19:33:17.517Z,9.52
2022-11-07T19:38:19.504Z,12.18
2022-11-07T19:43:21.360Z,6.07
2022-11-07T19:48:23.079Z,3.10
2022-11-07T19:53:24.965Z,3.17
2022-11-07T19:58:26.659Z,3.20
2022-11-07T20:03:28.412Z,4.32
2022-11-07T20:08:30.175Z,4.35
2022-11-07T20:13:31.845Z,5.65
2022-11-07T20:18:37.773Z,9.38
2022-11-07T20:23:43.146Z,14.50
2022-11-07T20:28:46.617Z,11.90
2022-11-07T20:33:48.877Z,8.43
2022-11-07T20:38:50.531Z,4.90
2022-11-07T20:44:03.778Z,8.05
2022-11-07T20:49:07.206Z,4.88
2022-11-07T20:54:13.237Z,4.60
2022-11-07T20:59:14.995Z,11.38
2022-11-07T21:04:17.586Z,9.32
2022-11-07T21:09:21.064Z,7.68
2022-11-07T21:14:22.823Z,6.75
2022-11-07T21:19:24.526Z,4.00
2022-11-07T21:24:30.637Z,7.32
2022-11-07T21:29:33.405Z,4.05
2022-11-07T21:34:37.309Z,2.80
2022-11-07T21:39:38.986Z,2.17
2022-11-07T21:44:40.647Z,1.95
2022-11-07T21:49:42.718Z,10.60
2022-11-07T21:54:44.956Z,6.97
2022-11-07T21:59:47.150Z,3.30
2022-11-07T22:04:49.262Z,5.68
2022-11-07T22:09:51.399Z,4.55
2022-11-07T22:14:53.118Z,4.20
2022-11-07T22:19:54.921Z,3.63
2022-11-07T22:24:56.603Z,2.00
2022-11-07T22:29:58.269Z,2.00
2022-11-07T22:35:01.673Z,2.67
2022-11-07T22:40:07.515Z,2.80
2022-11-07T22:45:09.452Z,3.10
2022-11-07T22:50:11.181Z,1.85
2022-11-07T22:55:12.930Z,3.08
2022-11-07T23:00:21.402Z,2.60
2022-11-07T23:05:23.386Z,5.55
2022-11-07T23:10:25.066Z,4.93
2022-11-07T23:15:27.224Z,8.07
2022-11-07T23:20:47.944Z,5.50
2022-11-07T23:25:50.040Z,2.90
2022-11-07T23:30:52.672Z,3.03
2022-11-07T23:36:01.720Z,2.38
2022-11-07T23:41:05.357Z,2.00
2022-11-07T23:46:26.102Z,2.00
2022-11-07T23:51:28.194Z,4.97
2022-11-07T23:56:30.505Z,2.67
